createdAt,value
2023-04-23T00:09:04.915Z,75.2
2023-04-23T00:10:03.413Z,75
2023-04-23T00:11:03.105Z,74.9
2023-04-23T00:12:03.874Z,75.1
2023-04-23T00:13:03.362Z,75.2
2023-04-23T00:14:05.180Z,75
2023-04-23T00:15:05.229Z,75.3
2023-04-23T00:16:03.524Z,75.3
2023-04-23T00:17:04.163Z,75.2
2023-04-23T00:18:03.507Z,75.3
2023-04-23T00:19:05.978Z,75.6
2023-04-23T00:20:03.206Z,75.5
2023-04-23T00:21:05.643Z,75.7
2023-04-23T00:22:03.933Z,74.3
2023-04-23T00:23:03.452Z,74.3
2023-04-23T00:24:05.322Z,74.2
2023-04-23T00:25:05.067Z,74.6
2023-04-23T00:26:03.241Z,75.2
2023-04-23T00:27:03.680Z,75.2
2023-04-23T00:28:03.404Z,75
2023-04-23T00:29:04.824Z,75.3
2023-04-23T00:30:03.853Z,75.4
2023-04-23T00:31:03.657Z,75.3
2023-04-23T00:32:03.312Z,75
2023-04-23T00:33:03.777Z,75.2
2023-04-23T00:34:04.053Z,75.4
2023-04-23T00:35:03.152Z,75.7
2023-04-23T00:36:03.920Z,75.6
2023-04-23T00:37:05.226Z,75.6
2023-04-23T00:38:03.568Z,75.5
2023-04-23T00:39:05.009Z,74
2023-04-23T00:40:03.998Z,74.3
2023-04-23T00:41:03.724Z,74.5
2023-04-23T00:42:03.260Z,74.9
2023-04-23T00:43:03.791Z,74.4
2023-04-23T00:44:03.946Z,74.8
2023-04-23T00:45:04.030Z,75.3
2023-04-23T00:46:03.645Z,75.2
2023-04-23T00:47:03.169Z,75.6
2023-04-23T00:48:03.732Z,76.3
2023-04-23T00:49:04.044Z,76.3
2023-04-23T00:50:03.219Z,76.8
2023-04-23T00:51:04.007Z,77
2023-04-23T00:52:03.606Z,77
2023-04-23T00:53:04.024Z,77.4
2023-04-23T00:54:03.592Z,77.6
2023-04-23T00:55:03.385Z,77.7
2023-04-23T00:56:03.870Z,77.6
2023-04-23T00:57:03.376Z,78.1
2023-04-23T00:58:03.872Z,78.3
2023-04-23T00:59:04.091Z,78.7
2023-04-23T01:00:05.048Z,79.2
2023-04-23T01:01:03.993Z,79.5
2023-04-23T01:02:04.224Z,80
2023-04-23T01:03:04.036Z,80.2
2023-04-23T01:04:05.317Z,80.3
2023-04-23T01:05:03.745Z,80.8
2023-04-23T01:06:03.606Z,81
2023-04-23T01:07:04.132Z,81.1
2023-04-23T01:08:05.601Z,81.3
2023-04-23T01:09:04.671Z,81.5
2023-04-23T01:10:05.366Z,81.5
2023-04-23T01:11:03.598Z,81.7
2023-04-23T01:12:03.947Z,81.8
2023-04-23T01:13:03.927Z,81.9
2023-04-23T01:14:03.729Z,82
2023-04-23T01:15:03.768Z,82
2023-04-23T01:16:03.700Z,82
2023-04-23T01:17:03.308Z,82
2023-04-23T01:18:03.855Z,82
2023-04-23T01:19:04.270Z,82.1
2023-04-23T01:20:03.710Z,82.1
2023-04-23T01:21:05.024Z,82.1
2023-04-23T01:22:03.215Z,82.3
2023-04-23T01:23:03.662Z,82.4
2023-04-23T01:24:03.908Z,82.4
2023-04-23T01:25:03.873Z,82.7
2023-04-23T01:26:03.490Z,82.8
2023-04-23T01:27:04.050Z,82.9
2023-04-23T01:28:03.637Z,83.1
2023-04-23T01:29:03.871Z,83.2
2023-04-23T01:30:04.256Z,83.2
2023-04-23T01:31:03.462Z,83.4
2023-04-23T01:32:04.106Z,83.4
2023-04-23T01:33:03.638Z,83.5
2023-04-23T01:34:05.715Z,83.5
2023-04-23T01:35:03.915Z,83.6
2023-04-23T01:36:03.637Z,83.6
2023-04-23T01:37:04.771Z,83.8
2023-04-23T01:38:04.000Z,83.7
2023-04-23T01:39:04.270Z,83.5
2023-04-23T01:40:03.190Z,83.5
2023-04-23T01:41:03.617Z,83.4
2023-04-23T01:42:03.509Z,83.3
2023-04-23T01:43:03.996Z,83.2
2023-04-23T01:44:06.612Z,83.1
2023-04-23T01:45:03.623Z,83
2023-04-23T01:46:03.194Z,82.7
2023-04-23T01:47:05.683Z,82.6
2023-04-23T01:48:03.425Z,82.7
2023-04-23T01:49:04.504Z,83
2023-04-23T01:50:03.532Z,83.2
2023-04-23T01:51:04.878Z,83.2
2023-04-23T01:52:04.137Z,83.2
2023-04-23T01:53:03.528Z,83.4
2023-04-23T01:54:05.818Z,83.5
2023-04-23T01:55:03.152Z,83.6
2023-04-23T01:56:05.404Z,83.8
2023-04-23T01:57:05.209Z,83.8
2023-04-23T01:58:03.543Z,83.8
2023-04-23T01:59:04.706Z,83.5
2023-04-23T02:00:03.092Z,83.1
2023-04-23T02:01:05.468Z,82.9
2023-04-23T02:02:03.857Z,83
2023-04-23T02:03:04.899Z,83
2023-04-23T02:04:03.523Z,83.1
2023-04-23T02:05:03.956Z,83.1
2023-04-23T02:06:03.791Z,82.9
2023-04-23T02:07:03.196Z,83.1
2023-04-23T02:08:03.990Z,83.3
2023-04-23T02:09:04.480Z,83.6
2023-04-23T02:10:03.341Z,84
2023-04-23T02:11:04.018Z,84
2023-04-23T02:12:03.697Z,84.1
2023-04-23T02:13:03.169Z,84.3
2023-04-23T02:14:05.949Z,84.4
2023-04-23T02:15:03.091Z,84.4
2023-04-23T02:16:04.290Z,84.3
2023-04-23T02:17:03.361Z,84.5
2023-04-23T02:18:03.941Z,84.4
2023-04-23T02:19:04.027Z,84.3
2023-04-23T02:20:03.313Z,84.2
2023-04-23T02:21:05.824Z,84.1
2023-04-23T02:22:04.079Z,84.3
2023-04-23T02:23:03.699Z,84.6
2023-04-23T02:24:06.687Z,84.7
2023-04-23T02:25:03.812Z,84.4
2023-04-23T02:26:05.059Z,84.2
2023-04-23T02:27:05.159Z,84.1
2023-04-23T02:28:03.217Z,84.1
2023-04-23T02:29:05.112Z,83.9
2023-04-23T02:30:05.315Z,83.6
2023-04-23T02:31:04.077Z,83.2
2023-04-23T02:32:03.446Z,83.2
2023-04-23T02:33:04.080Z,83.3
2023-04-23T02:34:05.848Z,83.5
2023-04-23T02:35:03.270Z,83.2
2023-04-23T02:36:03.694Z,83.6
2023-04-23T02:37:03.483Z,83.7
2023-04-23T02:38:03.996Z,83.7
2023-04-23T02:39:04.142Z,83.9
2023-04-23T02:40:03.699Z,84.3
2023-04-23T02:41:03.418Z,84.4
2023-04-23T02:42:03.940Z,84.3
2023-04-23T02:43:03.260Z,84.2
2023-04-23T02:44:04.902Z,84.4
2023-04-23T02:45:04.745Z,84.5
2023-04-23T02:46:04.046Z,84.5
2023-04-23T02:47:03.683Z,84.5
2023-04-23T02:48:04.187Z,84.3
2023-04-23T02:49:04.309Z,84.2
2023-04-23T02:50:05.397Z,84.3
2023-04-23T02:51:03.476Z,84.3
2023-04-23T02:52:04.065Z,84.4
2023-04-23T02:53:03.540Z,84.4
2023-04-23T02:54:03.737Z,84.1
2023-04-23T02:55:04.155Z,83.9
2023-04-23T02:56:04.040Z,84
2023-04-23T02:57:03.158Z,84
2023-04-23T02:58:03.749Z,84
2023-04-23T02:59:04.091Z,84.1
2023-04-23T03:00:03.483Z,84.4
2023-04-23T03:01:05.764Z,84.5
2023-04-23T03:02:04.571Z,84.5
2023-04-23T03:04:05.176Z,84.5
2023-04-23T03:05:03.140Z,84.7
2023-04-23T03:06:03.881Z,84.7
2023-04-23T03:07:03.384Z,84.8
2023-04-23T03:08:05.657Z,84.9
2023-04-23T03:09:04.960Z,85
2023-04-23T03:10:05.595Z,85.1
2023-04-23T03:11:03.749Z,85.2
2023-04-23T03:12:05.171Z,85.2
2023-04-23T03:13:03.248Z,85.3
2023-04-23T03:14:03.916Z,85.3
2023-04-23T03:15:05.722Z,85.4
2023-04-23T03:16:04.042Z,85.5
2023-04-23T03:17:03.691Z,85.4
2023-04-23T03:18:05.859Z,85.5
2023-04-23T03:19:06.691Z,85.5
2023-04-23T03:20:03.961Z,85.6
2023-04-23T03:21:03.359Z,85.6
2023-04-23T03:22:03.934Z,85.6
2023-04-23T03:23:05.162Z,85.6
2023-04-23T03:24:03.293Z,85.6
2023-04-23T03:25:03.703Z,85.7
2023-04-23T03:26:03.521Z,85.8
2023-04-23T03:27:05.951Z,85.8
2023-04-23T03:28:05.132Z,85.8
2023-04-23T03:29:07.629Z,85.7
2023-04-23T03:30:05.427Z,85.7
2023-04-23T03:31:03.791Z,85.6
2023-04-23T03:32:04.181Z,85.5
2023-04-23T03:33:08.541Z,85.4
2023-04-23T03:34:04.554Z,85.3
2023-04-23T03:35:03.342Z,85.3
2023-04-23T03:36:02.901Z,85.3
2023-04-23T03:37:03.636Z,85.3
2023-04-23T03:38:03.234Z,85.2
2023-04-23T03:39:04.896Z,85.2
2023-04-23T03:40:03.751Z,85.2
2023-04-23T03:41:05.090Z,85.1
2023-04-23T03:42:04.742Z,85.1
2023-04-23T03:43:03.962Z,85
2023-04-23T03:44:05.759Z,85
2023-04-23T03:45:03.036Z,85
2023-04-23T03:46:03.607Z,84.9
2023-04-23T03:47:03.467Z,84.7
2023-04-23T03:49:04.970Z,84.6
2023-04-23T03:50:03.765Z,84.6
2023-04-23T03:51:04.005Z,84.6
2023-04-23T03:52:03.409Z,84.6
2023-04-23T03:53:03.986Z,84.5
2023-04-23T03:54:04.324Z,84.6
2023-04-23T03:55:03.357Z,84.6
2023-04-23T03:56:03.691Z,84.5
2023-04-23T03:57:03.676Z,84.5
2023-04-23T03:58:03.056Z,84.5
2023-04-23T03:59:04.810Z,84.4
2023-04-23T04:00:05.598Z,84.4
2023-04-23T04:01:03.814Z,84.3
2023-04-23T04:02:03.363Z,84.4
2023-04-23T04:03:03.335Z,84.4
2023-04-23T04:04:04.830Z,84.5
2023-04-23T04:05:03.910Z,84.5
2023-04-23T04:06:03.083Z,84.5
2023-04-23T04:07:03.911Z,84.6
2023-04-23T04:08:03.342Z,84.7
2023-04-23T04:09:03.855Z,84.6
2023-04-23T04:10:04.016Z,84.6
2023-04-23T04:11:04.107Z,84.6
2023-04-23T04:12:03.637Z,84.5
2023-04-23T04:13:03.995Z,84.5
2023-04-23T04:14:04.254Z,84.5
2023-04-23T04:15:03.336Z,84.6
2023-04-23T04:16:03.484Z,84.6
2023-04-23T04:17:03.860Z,84.6
2023-04-23T04:18:03.515Z,84.6
2023-04-23T04:19:03.802Z,84.6
2023-04-23T04:20:03.337Z,84.6
2023-04-23T04:21:03.916Z,84.6
2023-04-23T04:22:03.575Z,84.5
2023-04-23T04:23:03.240Z,84.2
2023-04-23T04:24:06.737Z,84
2023-04-23T04:25:04.101Z,83.8
2023-04-23T04:26:03.701Z,83.7
2023-04-23T04:27:03.222Z,83.5
2023-04-23T04:28:03.823Z,83.3
2023-04-23T04:29:04.949Z,83.1
2023-04-23T04:30:03.415Z,83.1
2023-04-23T04:31:05.979Z,82.8
2023-04-23T04:32:05.723Z,82.8
2023-04-23T04:33:03.849Z,82.5
2023-04-23T04:34:04.712Z,82.3
2023-04-23T04:35:03.085Z,82.2
2023-04-23T04:36:03.960Z,81.9
2023-04-23T04:37:03.529Z,81.8
2023-04-23T04:38:04.887Z,81.8
2023-04-23T04:39:04.970Z,81.6
2023-04-23T04:40:03.175Z,80.7
2023-04-23T04:41:03.939Z,81.1
2023-04-23T04:42:04.085Z,80.8
2023-04-23T04:43:03.230Z,80.6
2023-04-23T04:44:04.490Z,80.5
2023-04-23T04:45:03.521Z,80.7
2023-04-23T04:46:05.951Z,80.3
2023-04-23T04:47:05.757Z,80.3
2023-04-23T04:48:03.744Z,80.2
2023-04-23T04:49:03.884Z,80
2023-04-23T04:50:03.185Z,79.9
2023-04-23T04:51:03.881Z,79.9
2023-04-23T04:52:05.199Z,80.2
2023-04-23T04:53:04.894Z,80
2023-04-23T04:54:04.763Z,79.9
2023-04-23T04:55:03.493Z,79.9
2023-04-23T04:56:05.424Z,80
2023-04-23T04:57:03.605Z,80
2023-04-23T04:58:03.320Z,80
2023-04-23T04:59:04.783Z,79.8
2023-04-23T05:00:03.703Z,79.2
2023-04-23T06:44:04.930Z,75.7
2023-04-23T06:45:05.926Z,75.3
2023-04-23T06:46:02.960Z,75.3
2023-04-23T06:47:03.692Z,75.6
2023-04-23T06:48:03.149Z,75.3
2023-04-23T06:49:05.018Z,76
2023-04-23T06:50:04.921Z,74.7
2023-04-23T06:51:03.242Z,75.7
2023-04-23T06:52:05.467Z,75.8
2023-04-23T06:53:03.780Z,75.4
2023-04-23T06:54:06.418Z,76.1
2023-04-23T06:55:03.544Z,75.1
2023-04-23T06:56:03.114Z,74.9
2023-04-23T06:57:03.573Z,75.2
2023-04-23T06:58:03.219Z,75.6
2023-04-23T06:59:04.722Z,76
2023-04-23T07:00:03.931Z,75.6
2023-04-23T07:01:05.333Z,75
2023-04-23T07:02:03.655Z,75
2023-04-23T07:03:05.593Z,75.1
2023-04-23T07:04:03.854Z,75.3
2023-04-23T07:05:03.401Z,75.5
2023-04-23T07:06:03.729Z,75.7
2023-04-23T07:07:04.976Z,75.9
2023-04-23T07:08:03.940Z,75.5
2023-04-23T07:09:04.215Z,75.9
2023-04-23T07:10:03.307Z,76.1
2023-04-23T07:11:03.965Z,76.1
2023-04-23T07:12:03.684Z,75.2
2023-04-23T07:13:03.488Z,75.6
2023-04-23T07:14:06.571Z,76.8
2023-04-23T07:15:03.543Z,76.3
2023-04-23T07:16:03.276Z,76.8
2023-04-23T07:17:04.469Z,76.6
2023-04-23T07:18:03.543Z,76.6
2023-04-23T07:19:03.933Z,76
2023-04-23T07:20:03.210Z,76.6
2023-04-23T07:21:03.929Z,75.8
2023-04-23T07:22:05.202Z,76.3
2023-04-23T07:23:03.629Z,75.6
2023-04-23T07:24:06.292Z,75.7
2023-04-23T07:25:03.258Z,75.7
2023-04-23T07:26:05.893Z,76.5
2023-04-23T07:27:03.248Z,76.3
2023-04-23T07:28:03.719Z,75.7
2023-04-23T07:29:04.321Z,73.8
2023-04-23T07:30:03.451Z,74.7
2023-04-23T07:31:05.803Z,74.8
2023-04-23T07:32:04.198Z,73.2
2023-04-23T07:33:03.738Z,74.1
2023-04-23T07:34:04.946Z,73.8
2023-04-23T07:35:03.947Z,73.5
2023-04-23T07:36:03.053Z,73.1
2023-04-23T07:37:03.771Z,72.7
2023-04-23T07:38:03.747Z,72.1
2023-04-23T07:39:09.348Z,73.4
2023-04-23T07:40:05.840Z,73.5
2023-04-23T07:41:04.154Z,73.5
2023-04-23T07:42:05.172Z,74.7
2023-04-23T07:43:02.767Z,74.2
2023-04-23T07:44:03.828Z,73.9
2023-04-23T07:45:03.852Z,73.5
2023-04-23T07:46:03.714Z,73.7
2023-04-23T07:47:04.921Z,74.3
2023-04-23T07:48:05.751Z,75
2023-04-23T07:49:04.763Z,74.2
2023-04-23T07:50:05.792Z,74.5
2023-04-23T07:51:03.954Z,73.7
2023-04-23T07:52:03.375Z,73.5
2023-04-23T07:53:03.190Z,73.8
2023-04-23T07:54:04.417Z,74.8
2023-04-23T07:55:03.157Z,73.3
2023-04-23T07:56:04.232Z,73.2
2023-04-23T07:57:03.420Z,73.8
2023-04-23T07:58:03.031Z,74.1
2023-04-23T07:59:04.352Z,74
2023-04-23T08:00:05.003Z,73.9
2023-04-23T08:01:03.096Z,74.3
2023-04-23T08:02:05.050Z,74.6
2023-04-23T08:03:03.349Z,74.5
2023-04-23T08:04:06.669Z,74.1
2023-04-23T08:05:03.448Z,73.2
2023-04-23T08:06:03.832Z,73
2023-04-23T08:07:03.694Z,73.5
2023-04-23T08:08:04.923Z,73.6
2023-04-23T08:09:04.548Z,73.5
2023-04-23T08:10:04.238Z,73.8
2023-04-23T08:11:03.376Z,72.9
2023-04-23T08:12:05.772Z,72.1
2023-04-23T08:13:05.706Z,72.8
2023-04-23T08:14:04.870Z,73.2
2023-04-23T08:15:05.320Z,73.7
2023-04-23T08:16:03.808Z,73.1
2023-04-23T08:17:04.286Z,73.5
2023-04-23T08:18:03.695Z,73.8
2023-04-23T08:19:06.059Z,73.8
2023-04-23T08:20:03.275Z,74.2
2023-04-23T08:21:03.960Z,73.9
2023-04-23T08:22:03.659Z,72.8
2023-04-23T08:23:03.369Z,73.1
2023-04-23T08:24:04.661Z,73
2023-04-23T08:25:05.372Z,73.1
2023-04-23T08:26:03.655Z,74.1
2023-04-23T08:27:03.391Z,75.5
2023-04-23T08:28:03.988Z,75.4
2023-04-23T08:29:04.255Z,74.7
2023-04-23T08:30:03.328Z,73.6
2023-04-23T08:31:15.110Z,74
2023-04-23T08:32:03.833Z,73.3
2023-04-23T08:33:03.328Z,73
2023-04-23T08:35:05.331Z,74
2023-04-23T08:36:05.294Z,73.9
2023-04-23T08:37:03.512Z,74
2023-04-23T08:38:04.128Z,73.8
2023-04-23T08:39:04.780Z,73.9
2023-04-23T08:40:03.776Z,74.1
2023-04-23T08:41:03.499Z,75
2023-04-23T08:42:03.446Z,74.6
2023-04-23T08:43:03.613Z,74.7
2023-04-23T08:44:03.618Z,75.5
2023-04-23T08:45:03.016Z,75.8
2023-04-23T08:46:03.515Z,74.9
2023-04-23T08:47:03.685Z,75.4
2023-04-23T08:48:03.131Z,75.4
2023-04-23T08:49:04.400Z,75.7
2023-04-23T08:50:03.644Z,76.3
2023-04-23T08:51:03.260Z,76.2
2023-04-23T08:52:04.246Z,76.2
2023-04-23T08:53:04.561Z,76.9
2023-04-23T08:54:03.993Z,77.5
2023-04-23T08:55:03.884Z,78
2023-04-23T08:56:03.625Z,78.1
2023-04-23T08:57:04.182Z,77.5
2023-04-23T08:58:03.690Z,77.8
2023-04-23T08:59:04.446Z,77.6
2023-04-23T09:00:03.553Z,76.8
2023-04-23T09:01:03.458Z,75
2023-04-23T09:02:03.879Z,74.9
2023-04-23T09:03:04.169Z,73.8
2023-04-23T09:04:16.171Z,73.1
2023-04-23T09:05:03.274Z,72.6
2023-04-23T09:06:03.272Z,72.3
2023-04-23T09:07:03.798Z,73.7
2023-04-23T09:08:03.669Z,74.1
2023-04-23T09:09:06.929Z,74
2023-04-23T09:10:03.285Z,74.9
2023-04-23T09:11:03.848Z,74.7
2023-04-23T09:12:05.060Z,74.6
2023-04-23T09:13:03.105Z,75
2023-04-23T09:14:04.191Z,76.2
2023-04-23T09:15:03.474Z,76.1
2023-04-23T09:16:03.449Z,76.2
2023-04-23T09:17:03.912Z,76.8
2023-04-23T09:18:03.436Z,76.8
2023-04-23T09:19:07.114Z,76.3
2023-04-23T09:20:03.397Z,75.3
2023-04-23T09:21:03.863Z,75.7
2023-04-23T09:22:03.591Z,74.9
2023-04-23T09:23:03.085Z,75
2023-04-23T09:24:04.472Z,75.3
2023-04-23T09:25:05.384Z,75.5
2023-04-23T09:26:05.260Z,75.1
2023-04-23T09:27:03.394Z,75.1
2023-04-23T09:28:04.073Z,75.5
2023-04-23T09:29:04.450Z,75.4
2023-04-23T09:30:03.641Z,75.5
2023-04-23T09:31:05.450Z,75.6
2023-04-23T09:32:03.910Z,75.2
2023-04-23T09:33:03.949Z,74.7
2023-04-23T09:34:05.049Z,74.9
2023-04-23T09:35:03.582Z,75.1
2023-04-23T09:36:03.209Z,75
2023-04-23T09:37:04.020Z,75.6
2023-04-23T09:38:03.471Z,75.7
2023-04-23T09:39:06.012Z,76.1
2023-04-23T09:40:03.295Z,75.9
2023-04-23T09:41:04.410Z,76.2
2023-04-23T09:42:03.823Z,75.8
2023-04-23T09:43:03.435Z,75.6
2023-04-23T09:44:05.672Z,75.7
2023-04-23T09:45:03.039Z,75.7
2023-04-23T09:46:03.794Z,76
2023-04-23T09:47:05.508Z,76.4
2023-04-23T09:48:03.329Z,76.1
2023-04-23T09:49:06.879Z,75.2
2023-04-23T09:50:03.436Z,75.3
2023-04-23T09:52:05.120Z,75.6
2023-04-23T09:53:02.997Z,75.4
2023-04-23T09:54:04.810Z,75.7
2023-04-23T09:55:03.429Z,75
2023-04-23T09:56:03.986Z,74.7
2023-04-23T09:57:03.589Z,74.2
2023-04-23T09:58:03.090Z,74.2
2023-04-23T09:59:06.080Z,75.1
2023-04-23T10:00:14.328Z,75.3
2023-04-23T10:01:03.192Z,74.8
2023-04-23T10:02:03.843Z,75.2
2023-04-23T10:03:03.865Z,74.8
2023-04-23T10:04:03.661Z,74
2023-04-23T10:05:21.455Z,73.8
2023-04-23T10:06:04.780Z,72.1
2023-04-23T10:08:03.804Z,73.2
2023-04-23T10:09:03.978Z,73.1
2023-04-23T10:10:03.255Z,71.8
2023-04-23T10:11:19.919Z,71.5
2023-04-23T10:12:05.517Z,72.4
2023-04-23T10:13:03.784Z,71.7
2023-04-23T10:14:03.918Z,70.8
2023-04-23T10:15:03.529Z,70.3
2023-04-23T10:16:18.237Z,71.1
2023-04-23T10:17:03.723Z,69.4
2023-04-23T10:18:03.295Z,69.7
2023-04-23T10:19:06.516Z,69.3
2023-04-23T10:20:03.632Z,69.2
2023-04-23T10:21:03.672Z,68.6
2023-04-23T10:22:18.188Z,69.1
2023-04-23T10:23:03.865Z,68.5
2023-04-23T10:24:04.135Z,67.3
2023-04-23T10:25:03.501Z,67.2
2023-04-23T10:26:03.893Z,67.3
2023-04-23T10:27:03.933Z,67.1
2023-04-23T10:28:03.451Z,66
2023-04-23T10:29:04.860Z,66.8
2023-04-23T10:30:06.233Z,66.9
2023-04-23T10:31:05.311Z,66.3
2023-04-23T10:32:03.550Z,67.3
2023-04-23T10:33:03.256Z,65.6
2023-04-23T10:34:04.613Z,66.4
2023-04-23T10:35:05.904Z,66
2023-04-23T10:36:04.151Z,65.6
2023-04-23T10:37:04.142Z,65.7
2023-04-23T10:38:03.354Z,66
2023-04-23T10:39:05.407Z,64.9
2023-04-23T10:40:04.833Z,65.2
2023-04-23T10:41:03.861Z,65.6
2023-04-23T10:42:03.570Z,66.3
2023-04-23T10:43:03.517Z,66.9
2023-04-23T10:44:04.463Z,67.2
2023-04-23T10:45:13.100Z,65.6
2023-04-23T10:46:03.441Z,65.4
2023-04-23T10:47:03.191Z,64.6
2023-04-23T10:48:03.788Z,64.6
2023-04-23T10:49:04.236Z,64.6
2023-04-23T10:50:02.916Z,64.1
2023-04-23T10:51:28.451Z,64.6
2023-04-23T10:52:18.034Z,65.3
2023-04-23T10:53:04.022Z,64.8
2023-04-23T10:54:03.842Z,65
2023-04-23T10:55:04.986Z,66
2023-04-23T10:56:05.721Z,66.1
2023-04-23T10:57:03.931Z,67
2023-04-23T10:58:05.076Z,66.5
2023-04-23T10:59:04.390Z,66.2
2023-04-23T11:00:03.331Z,66.4
2023-04-23T11:30:04.282Z,64.2
2023-04-23T11:31:03.772Z,65.2
2023-04-23T11:32:04.193Z,65.7
2023-04-23T11:33:04.215Z,65.1
2023-04-23T11:34:04.623Z,63.3
2023-04-23T11:35:04.595Z,64
2023-04-23T11:36:04.017Z,65.3
2023-04-23T11:37:03.631Z,64.7
2023-04-23T11:38:03.425Z,64.4
2023-04-23T11:39:04.766Z,65.3
2023-04-23T11:40:04.024Z,65.7
2023-04-23T11:41:03.595Z,65.2
2023-04-23T11:42:03.644Z,65.2
2023-04-23T11:43:04.134Z,65.5
2023-04-23T11:44:04.650Z,65.3
2023-04-23T11:45:03.962Z,65.8
2023-04-23T11:46:03.791Z,66.7
2023-04-23T11:47:04.175Z,67
2023-04-23T11:48:05.347Z,66.8
2023-04-23T11:49:06.188Z,67.4
2023-04-23T11:50:03.482Z,67.1
2023-04-23T11:51:03.864Z,66.9
2023-04-23T11:52:03.566Z,67.1
2023-04-23T11:53:03.972Z,66.6
2023-04-23T11:54:04.285Z,66.2
2023-04-23T11:55:03.057Z,66.6
2023-04-23T11:56:03.958Z,66.1
2023-04-23T11:57:03.305Z,64.8
2023-04-23T11:58:03.918Z,65.7
2023-04-23T11:59:04.867Z,67.4
2023-04-23T12:00:04.103Z,67.2
2023-04-23T12:01:03.753Z,66.7
2023-04-23T12:02:04.263Z,66.6
2023-04-23T12:03:03.783Z,63.1
2023-04-23T12:04:04.220Z,63.5
2023-04-23T12:05:05.125Z,64
2023-04-23T12:06:05.861Z,64.2
2023-04-23T12:07:10.216Z,65.6
2023-04-23T12:08:04.107Z,64
2023-04-23T12:09:04.282Z,63.8
2023-04-23T12:10:03.434Z,64.4
2023-04-23T12:11:05.583Z,64.8
2023-04-23T12:12:04.124Z,62.7
2023-04-23T12:13:03.045Z,63.4
2023-04-23T12:14:05.225Z,64.1
2023-04-23T12:15:03.193Z,61.2
2023-04-23T12:16:04.111Z,60.4
2023-04-23T12:17:05.254Z,62.9
2023-04-23T12:18:03.289Z,62.3
2023-04-23T12:19:04.949Z,61.9
2023-04-23T12:20:03.182Z,62
2023-04-23T12:21:03.687Z,61.1
2023-04-23T12:22:03.115Z,59.4
2023-04-23T12:23:03.768Z,60.6
2023-04-23T12:24:04.292Z,61.2
2023-04-23T12:25:03.299Z,59.9
2023-04-23T12:26:04.040Z,59.4
2023-04-23T12:27:03.623Z,59.2
2023-04-23T12:29:05.492Z,58.8
2023-04-23T12:30:06.422Z,58.7
2023-04-23T12:31:03.700Z,59.5
2023-04-23T12:32:03.298Z,60.8
2023-04-23T12:33:03.680Z,59.9
2023-04-23T12:34:04.168Z,59.2
2023-04-23T12:35:03.324Z,60.1
2023-04-23T12:36:03.184Z,59.6
2023-04-23T12:37:03.705Z,59.6
2023-04-23T12:38:03.170Z,59
2023-04-23T12:39:04.546Z,57.4
2023-04-23T12:40:03.585Z,59
2023-04-23T12:41:03.200Z,58.2
2023-04-23T12:42:03.863Z,57.1
2023-04-23T12:43:03.370Z,57.3
2023-04-23T12:44:04.753Z,59.6
2023-04-23T12:45:02.961Z,58.7
2023-04-23T12:46:03.500Z,56.8
2023-04-23T12:47:03.261Z,56.2
2023-04-23T12:48:03.334Z,56
2023-04-23T12:49:04.048Z,57.1
2023-04-23T12:50:03.117Z,57.3
2023-04-23T12:51:03.755Z,57.4
2023-04-23T12:52:03.176Z,56.6
2023-04-23T12:53:04.201Z,56.7
2023-04-23T12:54:04.392Z,56.7
2023-04-23T12:55:03.624Z,56.1
2023-04-23T12:56:03.328Z,55.1
2023-04-23T12:57:05.733Z,55.7
2023-04-23T12:58:03.686Z,54.7
2023-04-23T12:59:04.109Z,54.7
2023-04-23T13:00:03.087Z,54.6
2023-04-23T13:01:03.892Z,55
2023-04-23T13:02:03.978Z,54.6
2023-04-23T13:03:05.740Z,55.1
2023-04-23T13:04:04.771Z,54.5
2023-04-23T13:05:03.680Z,53.8
2023-04-23T13:06:03.245Z,54.4
2023-04-23T13:07:03.891Z,54.8
2023-04-23T13:08:04.967Z,54.7
2023-04-23T13:09:03.925Z,54.5
2023-04-23T13:10:02.918Z,55.5
2023-04-23T13:11:03.601Z,55
2023-04-23T13:12:03.010Z,54.2
2023-04-23T13:13:03.755Z,55.5
2023-04-23T13:14:03.573Z,55.5
2023-04-23T13:15:03.301Z,58
2023-04-23T13:16:03.864Z,55.7
2023-04-23T13:17:05.010Z,57.1
2023-04-23T13:18:04.324Z,57.2
2023-04-23T13:19:04.443Z,57.4
2023-04-23T13:20:03.356Z,56.7
2023-04-23T13:21:03.984Z,55.7
2023-04-23T13:22:03.432Z,56.8
2023-04-23T13:23:04.123Z,56.7
2023-04-23T13:24:04.609Z,56.9
2023-04-23T13:25:03.385Z,56.9
2023-04-23T13:26:04.103Z,58.3
2023-04-23T13:27:03.448Z,57.2
2023-04-23T13:28:03.987Z,59.5
2023-04-23T13:29:04.700Z,57.4
2023-04-23T13:30:03.352Z,56.7
2023-04-23T13:31:03.986Z,57
2023-04-23T13:32:03.708Z,58.4
2023-04-23T13:33:05.841Z,58.1
2023-04-23T13:34:04.729Z,58.3
2023-04-23T13:35:03.247Z,59.5
2023-04-23T13:36:04.146Z,59
2023-04-23T13:37:05.376Z,60.2
2023-04-23T13:38:05.007Z,60.3
2023-04-23T13:39:05.782Z,60.8
2023-04-23T13:40:03.062Z,59.3
2023-04-23T13:41:03.835Z,60.1
2023-04-23T13:42:09.454Z,59.7
2023-04-23T13:43:03.874Z,60.3
2023-04-23T13:44:05.716Z,60.4
2023-04-23T13:45:04.043Z,60.7
2023-04-23T13:46:03.665Z,60.7
2023-04-23T13:47:03.259Z,58
2023-04-23T13:48:03.775Z,58.5
2023-04-23T13:49:04.635Z,61.1
2023-04-23T13:50:03.687Z,59.9
2023-04-23T13:51:03.538Z,58.1
2023-04-23T13:52:04.063Z,57.8
2023-04-23T13:53:03.654Z,58.1
2023-04-23T13:54:03.568Z,57.4
2023-04-23T13:55:03.772Z,57.8
2023-04-23T13:56:03.536Z,58.3
2023-04-23T13:57:03.333Z,58.3
2023-04-23T13:58:03.891Z,59.6
2023-04-23T14:00:03.267Z,58.6
2023-04-23T14:01:04.200Z,58.4
2023-04-23T14:02:04.091Z,58
2023-04-23T14:03:03.606Z,58.7
2023-04-23T14:04:07.351Z,57.9
2023-04-23T14:05:04.873Z,58.1
2023-04-23T14:06:03.278Z,58.6
2023-04-23T14:07:03.242Z,59.1
2023-04-23T14:08:04.155Z,58.6
2023-04-23T14:09:04.725Z,59.6
2023-04-23T14:10:03.565Z,59.4
2023-04-23T14:11:04.171Z,57.6
2023-04-23T14:12:03.688Z,58.2
2023-04-23T14:13:03.233Z,59
2023-04-23T14:14:04.475Z,57.3
2023-04-23T14:15:03.387Z,57.1
2023-04-23T14:16:04.051Z,56.7
2023-04-23T14:17:03.632Z,57.6
2023-04-23T14:18:05.708Z,59
2023-04-23T14:19:04.389Z,59.5
2023-04-23T14:20:03.387Z,60.3
2023-04-23T14:21:03.987Z,57.9
2023-04-23T14:22:05.358Z,59
2023-04-23T14:23:03.221Z,58.9
2023-04-23T14:24:04.832Z,58.3
2023-04-23T14:25:03.717Z,59.4
2023-04-23T14:26:03.440Z,59.3
2023-04-23T14:27:05.683Z,57.5
2023-04-23T14:28:03.663Z,59.2
2023-04-23T14:29:03.686Z,58.2
2023-04-23T14:30:03.991Z,58.5
2023-04-23T14:31:05.314Z,60.3
2023-04-23T14:32:03.519Z,60.3
2023-04-23T14:33:04.094Z,58.5
2023-04-23T14:34:04.533Z,59.1
2023-04-23T14:35:03.213Z,60.8
2023-04-23T14:36:03.923Z,60.3
2023-04-23T14:37:05.175Z,61.9
2023-04-23T14:38:03.390Z,61.7
2023-04-23T14:39:06.201Z,63.4
2023-04-23T14:40:03.705Z,62.8
2023-04-23T14:42:05.183Z,59.1
2023-04-23T14:43:14.929Z,59.6
2023-04-23T14:44:03.904Z,60.8
2023-04-23T14:45:04.683Z,60
2023-04-23T14:46:03.882Z,61.5
2023-04-23T14:47:03.691Z,61.4
2023-04-23T14:48:03.049Z,61.1
2023-04-23T14:49:04.503Z,60.9
2023-04-23T14:50:03.274Z,60.7
2023-04-23T14:51:04.005Z,58.7
2023-04-23T14:52:03.628Z,58.6
2023-04-23T14:53:03.230Z,59
2023-04-23T14:54:04.496Z,58.5
2023-04-23T14:55:05.084Z,59.3
2023-04-23T14:56:03.214Z,59.5
2023-04-23T14:57:03.704Z,61.7
2023-04-23T14:58:03.544Z,60.2
2023-04-23T14:59:04.984Z,59.9
2023-04-23T15:00:03.292Z,59
2023-04-23T15:01:04.750Z,59.6
2023-04-23T15:02:04.215Z,60.7
2023-04-23T15:03:04.658Z,59.4
2023-04-23T15:04:05.004Z,60.8
2023-04-23T15:05:03.337Z,59.6
2023-04-23T15:06:03.201Z,61.1
2023-04-23T15:07:03.757Z,60.1
2023-04-23T15:08:03.446Z,60.3
2023-04-23T15:09:04.714Z,61.2
2023-04-23T15:10:03.695Z,62.6
2023-04-23T15:11:03.277Z,59.7
2023-04-23T15:12:04.018Z,58.5
2023-04-23T15:13:03.634Z,61
2023-04-23T15:14:05.625Z,60.9
2023-04-23T15:15:03.720Z,60.8
2023-04-23T15:16:03.584Z,60.6
2023-04-23T15:17:03.959Z,60.7
2023-04-23T15:18:03.731Z,59.2
2023-04-23T15:19:03.917Z,62
2023-04-23T15:20:02.993Z,60.2
2023-04-23T15:21:02.746Z,62
2023-04-23T15:22:03.713Z,63.4
2023-04-23T15:23:04.128Z,62.2
2023-04-23T15:24:04.435Z,59.5
2023-04-23T15:25:05.108Z,61.3
2023-04-23T15:26:05.031Z,59.9
2023-04-23T15:27:03.387Z,62.8
2023-04-23T15:28:03.769Z,61
2023-04-23T15:29:04.295Z,60.3
2023-04-23T15:30:03.424Z,60.2
2023-04-23T15:31:03.754Z,60.9
2023-04-23T15:32:03.789Z,63.1
2023-04-23T15:33:04.108Z,61.3
2023-04-23T15:34:04.323Z,61.7
2023-04-23T15:35:03.038Z,63.2
2023-04-23T15:36:03.821Z,61.7
2023-04-23T15:37:03.352Z,63.9
2023-04-23T15:38:05.756Z,63.3
2023-04-23T15:39:04.729Z,65.8
2023-04-23T15:40:03.240Z,63.6
2023-04-23T15:41:05.453Z,64.5
2023-04-23T15:42:04.083Z,64.9
2023-04-23T15:43:03.152Z,64.7
2023-04-23T15:44:04.141Z,66.9
2023-04-23T15:45:03.271Z,67.3
2023-04-23T15:46:03.930Z,66.3
2023-04-23T15:47:03.457Z,65
2023-04-23T15:48:04.028Z,65.2
2023-04-23T15:49:04.186Z,65.6
2023-04-23T15:50:03.151Z,66
2023-04-23T15:51:03.714Z,67.4
2023-04-23T15:52:04.843Z,65.3
2023-04-23T15:53:03.768Z,65.1